Elmhurst, Illinois
Current Conditions -  °F | °C
As of 11:51 PM on Saturday 25 Oct 2014 (Local Time) from KORD Reporting Station
Clear Clear  
Wind Chill: 51°   Ceiling: Unl
Heat Index: 51°   Visibility: 10mi
Dew Point: 30°   Wind: 6mph
Humidity: 44%   Direction: 290°WNW
Pressure: 29.97"   Gusts: NA
Location:  41.9°N, 87.94°W
Report Text: KORD 260451Z 29005KT 10SM CLR 11/M01 A2997 RMK AO2 SLP149 T01061011
Loading
Personal Weather Stations






























Interactive Weather Map
Tropical Storm Tracking
New forecast layout! Learn more

10-Day Weather Forecast

Advertisements
Track Severe Weather on mobile